PRG weather

Václav Havel Airport Prague
Prague, Prague (capital city), Czechia

Public forecast

Using degrees Celsius for public forecast. Weather courtesy of forecast.io.

METAR (pilot weather report)

Retrieved 2019/04/21 12:00 UTC (50 seconds ago):

LKPR 211200Z 06006KT 350V100 CAVOK 18/M04 Q1022 NOSIG

TAF (pilot weather forecast)

Retrieved 2019/04/21 12:11 UTC (0 seconds ago):

TAF LKPR 211100Z 2112/2218 07008KT CAVOK TEMPO 2112/2120 13008KT TEMPO 2210/2218 08016G30KT